createdAt,value
2019-04-10T00:01:19.640Z,91.00
2019-04-10T00:03:50.429Z,91.10
2019-04-10T00:06:21.652Z,90.50
2019-04-10T00:08:52.813Z,90.30
2019-04-10T00:11:23.454Z,90.00
2019-04-10T00:13:53.948Z,89.30
2019-04-10T00:16:24.581Z,86.90
2019-04-10T00:18:56.138Z,86.00
2019-04-10T00:21:26.634Z,85.30
2019-04-10T00:23:57.691Z,85.50
2019-04-10T00:26:28.380Z,84.20
2019-04-10T00:29:00.140Z,83.80
2019-04-10T00:31:31.822Z,84.00
2019-04-10T00:34:03.232Z,83.10
2019-04-10T00:36:35.177Z,83.40
2019-04-10T00:39:08.621Z,83.10
2019-04-10T00:41:39.262Z,83.50
2019-04-10T00:44:11.099Z,82.70
2019-04-10T00:46:42.124Z,82.60
2019-04-10T00:49:13.470Z,81.70
2019-04-10T00:51:44.417Z,81.40
2019-04-10T00:54:14.819Z,80.60
2019-04-10T00:56:45.780Z,80.60
2019-04-10T00:59:17.738Z,81.30
2019-04-10T01:01:52.183Z,80.30
2019-04-10T01:04:24.442Z,79.10
2019-04-10T01:06:56.616Z,78.40
2019-04-10T01:09:27.252Z,77.00
2019-04-10T01:11:57.753Z,75.80
2019-04-10T01:14:28.235Z,75.30
2019-04-10T01:17:02.035Z,74.80
2019-04-10T01:19:32.890Z,75.20
2019-04-10T01:22:03.810Z,75.20
2019-04-10T01:24:35.484Z,75.20
2019-04-10T01:27:07.632Z,74.70
2019-04-10T01:29:39.867Z,74.00
2019-04-10T01:32:12.011Z,73.10
2019-04-10T01:34:44.017Z,72.50
2019-04-10T01:37:14.525Z,72.80
2019-04-10T01:39:45.023Z,72.90
2019-04-10T01:42:16.554Z,73.30
2019-04-10T01:44:48.961Z,73.60
2019-04-10T01:47:19.663Z,72.80
2019-04-10T01:49:50.325Z,72.30
2019-04-10T01:52:21.204Z,71.50
2019-04-10T01:54:51.704Z,71.30
2019-04-10T01:57:22.326Z,71.60
2019-04-10T01:59:54.186Z,71.80
2019-04-10T02:02:53.965Z,72.40
2019-04-10T02:05:25.050Z,71.30
2019-04-10T02:08:05.329Z,70.20
2019-04-10T02:10:29.071Z,70.00
2019-04-10T02:13:01.085Z,69.50
2019-04-10T02:15:32.410Z,70.50
2019-04-10T02:18:03.282Z,70.80
2019-04-10T02:20:34.700Z,70.90
2019-04-10T02:23:05.857Z,71.30
2019-04-10T02:25:37.674Z,71.10
2019-04-10T02:28:09.098Z,72.30
2019-04-10T02:30:41.344Z,72.70
2019-04-10T02:33:13.788Z,71.90
2019-04-10T02:35:45.459Z,72.00
2019-04-10T02:38:30.589Z,72.60
2019-04-10T02:40:49.855Z,72.40
2019-04-10T02:43:21.120Z,73.00
2019-04-10T02:45:51.928Z,74.10
2019-04-10T02:48:23.458Z,73.20
2019-04-10T02:50:55.535Z,73.30
2019-04-10T02:53:27.641Z,72.50
2019-04-10T02:56:00.320Z,72.90
2019-04-10T02:58:32.254Z,73.60
2019-04-10T03:01:03.240Z,74.00
2019-04-10T03:03:38.397Z,74.20
2019-04-10T03:06:09.281Z,74.40
2019-04-10T03:08:54.983Z,75.20
2019-04-10T03:11:12.674Z,75.70
2019-04-10T03:13:45.217Z,76.50
2019-04-10T03:16:15.963Z,76.80
2019-04-10T03:18:47.294Z,77.70
2019-04-10T03:21:18.645Z,78.20
2019-04-10T03:23:49.567Z,79.10
2019-04-10T03:26:21.331Z,80.00
2019-04-10T03:28:53.465Z,79.90
2019-04-10T03:31:25.280Z,79.80
2019-04-10T03:34:05.510Z,78.90
2019-04-10T03:36:40.080Z,78.70
2019-04-10T03:39:11.767Z,78.30
2019-04-10T03:41:42.815Z,78.20
2019-04-10T03:44:14.429Z,77.70
2019-04-10T03:46:45.123Z,77.50
2019-04-10T03:49:17.833Z,78.70
2019-04-10T03:51:49.194Z,78.60
2019-04-10T03:54:20.890Z,78.60
2019-04-10T03:56:52.315Z,78.60
2019-04-10T03:59:24.346Z,79.90
2019-04-10T04:01:55.585Z,80.40
2019-04-10T04:04:26.367Z,80.20
2019-04-10T04:06:57.808Z,79.70
2019-04-10T04:09:31.169Z,80.70
2019-04-10T04:12:08.437Z,80.20
2019-04-10T04:21:11.733Z,83.40
2019-04-10T04:24:14.359Z,83.90
2019-04-10T04:26:57.693Z,84.80
2019-04-10T04:29:39.891Z,85.80
2019-04-10T04:32:23.751Z,88.40
2019-04-10T04:35:05.907Z,88.40
2019-04-10T04:37:48.978Z,90.00
2019-04-10T04:40:31.202Z,90.80
2019-04-10T04:43:12.987Z,91.20
2019-04-10T04:45:55.475Z,92.20
2019-04-10T04:48:38.312Z,92.50
2019-04-10T04:51:21.876Z,92.50
2019-04-10T04:54:04.623Z,92.30
2019-04-10T04:56:47.065Z,92.30
2019-04-10T04:59:28.976Z,92.20
2019-04-10T05:02:12.213Z,92.70
2019-04-10T05:07:35.484Z,93.60
2019-04-10T05:10:17.831Z,94.30
2019-04-10T05:13:00.259Z,94.90
2019-04-10T05:15:42.807Z,95.40
2019-04-10T05:18:25.428Z,96.10
2019-04-10T05:20:56.751Z,96.50
2019-04-10T05:23:27.223Z,97.00
2019-04-10T05:25:59.075Z,97.30
2019-04-10T05:31:51.020Z,97.80
2019-04-10T05:34:33.942Z,98.20
2019-04-10T05:37:16.710Z,97.90
2019-04-10T05:39:59.332Z,97.60
2019-04-10T06:06:38.803Z,99.60
2019-04-10T06:09:21.331Z,99.80
2019-04-10T06:12:04.064Z,99.20
2019-04-10T06:18:27.141Z,99.30
2019-04-10T06:21:10.502Z,99.70
2019-04-10T06:23:53.920Z,99.90
2019-04-10T06:26:43.736Z,99.90
2019-04-10T06:33:05.972Z,99.60
2019-04-10T06:35:48.871Z,98.80
2019-04-10T06:38:31.742Z,98.50
2019-04-10T06:41:16.031Z,98.30
2019-04-10T06:43:57.289Z,98.10
2019-04-10T06:46:40.424Z,96.80
2019-04-10T06:49:24.580Z,96.50
2019-04-10T06:52:08.074Z,94.70
2019-04-10T06:54:51.114Z,95.90
2019-04-10T06:57:46.882Z,94.90
2019-04-10T07:00:19.758Z,93.20
2019-04-10T07:03:03.100Z,92.60
2019-04-10T07:06:00.563Z,93.30
2019-04-10T07:08:29.766Z,92.60
2019-04-10T07:11:13.546Z,90.90
2019-04-10T07:13:57.373Z,89.50
2019-04-10T07:16:40.246Z,88.30
2019-04-10T07:19:24.071Z,88.90
2019-04-10T07:22:11.941Z,85.60
2019-04-10T07:24:52.294Z,88.40
2019-04-10T07:27:38.223Z,86.10
2019-04-10T07:30:19.527Z,86.20
2019-04-10T07:33:01.874Z,84.40
2019-04-10T07:35:44.875Z,86.30
2019-04-10T07:38:26.992Z,89.00
2019-04-10T07:41:14.369Z,92.70
2019-04-10T07:43:55.448Z,94.10
2019-04-10T07:46:38.104Z,94.20
2019-04-10T07:49:22.101Z,90.20
2019-04-10T07:52:04.886Z,86.20
2019-04-10T07:54:48.184Z,79.90
2019-04-10T07:57:30.759Z,80.30
2019-04-10T08:03:53.934Z,73.50
2019-04-10T08:06:35.773Z,68.40
2019-04-10T08:09:18.896Z,68.90
2019-04-10T08:12:00.629Z,65.00
2019-04-10T08:14:42.723Z,64.50
2019-04-10T08:17:24.614Z,62.40
2019-04-10T08:20:07.803Z,60.50
2019-04-10T08:22:51.185Z,59.50
2019-04-10T08:28:47.502Z,65.10
2019-04-10T08:31:30.793Z,64.90
2019-04-10T08:34:42.070Z,65.60
2019-04-10T08:37:24.825Z,65.50
2019-04-10T08:40:07.607Z,63.00
2019-04-10T08:42:51.237Z,65.10
2019-04-10T08:45:40.554Z,64.60
2019-04-10T08:48:17.720Z,66.60
2019-04-10T08:54:10.723Z,65.10
2019-04-10T08:56:52.807Z,66.00
2019-04-10T09:02:14.755Z,64.70
2019-04-10T09:04:57.342Z,64.10
2019-04-10T09:07:40.071Z,62.60
2019-04-10T09:10:22.839Z,62.40
2019-04-10T09:13:04.939Z,63.60
2019-04-10T09:15:47.908Z,63.80
2019-04-10T09:18:30.020Z,66.40
2019-04-10T09:21:13.242Z,66.50
2019-04-10T09:23:57.588Z,65.80
2019-04-10T09:26:40.283Z,61.60
2019-04-10T09:29:24.265Z,61.00
2019-04-10T09:32:06.412Z,61.60
2019-04-10T09:34:49.870Z,64.10
2019-04-10T09:37:32.569Z,63.40
2019-04-10T09:40:16.283Z,64.30
2019-04-10T09:42:58.163Z,64.20
2019-04-10T09:45:43.730Z,65.20
2019-04-10T09:48:26.824Z,65.00
2019-04-10T09:51:09.826Z,64.40
2019-04-10T09:53:41.257Z,65.00
2019-04-10T09:59:46.990Z,67.10
2019-04-10T10:05:16.583Z,69.10
2019-04-10T10:07:58.343Z,68.50
2019-04-10T10:10:40.227Z,66.70
2019-04-10T10:13:23.532Z,65.50
2019-04-10T10:16:06.984Z,64.60
2019-04-10T10:18:49.900Z,66.30
2019-04-10T10:24:46.787Z,65.40
2019-04-10T10:27:30.128Z,65.80
2019-04-10T10:32:57.177Z,63.70
2019-04-10T10:38:27.368Z,64.70
2019-04-10T10:41:09.911Z,66.10
2019-04-10T10:43:52.893Z,67.60
2019-04-10T10:46:35.627Z,68.20
2019-04-10T10:49:24.351Z,66.70
2019-04-10T10:52:27.808Z,66.60
2019-04-10T10:55:09.903Z,67.30
2019-04-10T10:57:52.367Z,67.30
2019-04-10T11:00:35.589Z,66.00
2019-04-10T11:03:18.213Z,65.70
2019-04-10T11:06:00.764Z,65.30
2019-04-10T11:08:43.863Z,63.50
2019-04-10T11:11:26.761Z,64.30
2019-04-10T11:14:10.878Z,66.70
2019-04-10T11:16:53.701Z,67.50
2019-04-10T11:19:35.731Z,67.60
2019-04-10T11:25:02.213Z,67.80
2019-04-10T11:27:44.193Z,68.70
2019-04-10T11:30:49.152Z,65.90
2019-04-10T11:36:26.043Z,68.10
2019-04-10T11:39:16.734Z,65.10
2019-04-10T11:41:52.845Z,65.30
2019-04-10T11:44:36.767Z,64.90
2019-04-10T11:47:22.349Z,65.70
2019-04-10T11:50:06.757Z,63.90
2019-04-10T11:55:42.849Z,66.80
2019-04-10T11:58:17.920Z,64.60
2019-04-10T12:06:59.211Z,62.70
2019-04-10T12:12:23.769Z,62.10
2019-04-10T12:15:06.289Z,62.80
2019-04-10T12:17:49.771Z,61.40
2019-04-10T12:20:31.996Z,61.10
2019-04-10T12:23:14.107Z,62.30
2019-04-10T12:25:56.611Z,62.20
2019-04-10T12:28:40.302Z,62.40
2019-04-10T12:31:23.847Z,62.40
2019-04-10T12:34:06.561Z,62.40
2019-04-10T12:36:49.384Z,62.70
2019-04-10T12:39:32.234Z,64.00
2019-04-10T12:42:14.225Z,64.30
2019-04-10T12:44:57.713Z,66.00
2019-04-10T12:47:41.997Z,65.80
2019-04-10T12:50:24.741Z,65.90
2019-04-10T12:53:07.412Z,66.30
2019-04-10T12:55:49.838Z,66.70
2019-04-10T12:58:32.950Z,66.40
2019-04-10T13:01:16.318Z,66.00
2019-04-10T13:03:59.842Z,65.70
2019-04-10T13:06:42.706Z,67.60
2019-04-10T13:09:26.164Z,67.60
2019-04-10T13:12:09.072Z,67.80
2019-04-10T13:14:51.783Z,67.40
2019-04-10T13:17:35.014Z,69.40
2019-04-10T13:20:17.737Z,69.90
2019-04-10T13:23:00.316Z,69.00
2019-04-10T13:25:54.944Z,69.70
2019-04-10T13:28:27.616Z,68.40
2019-04-10T13:31:10.873Z,68.90
2019-04-10T13:33:53.876Z,68.00
2019-04-10T13:36:37.691Z,68.60
2019-04-10T13:39:20.425Z,68.90
2019-04-10T13:42:03.367Z,68.60
2019-04-10T13:44:46.745Z,68.00
2019-04-10T13:47:30.438Z,67.40
2019-04-10T13:50:12.915Z,67.90
2019-04-10T13:53:03.772Z,67.80
2019-04-10T14:05:22.708Z,67.40
2019-04-10T14:08:06.168Z,67.00
2019-04-10T14:10:48.891Z,65.60
2019-04-10T14:13:31.728Z,65.50
2019-04-10T14:16:14.792Z,65.50
2019-04-10T14:18:57.325Z,65.40
2019-04-10T14:21:40.840Z,66.40
2019-04-10T14:24:24.811Z,65.80
2019-04-10T14:33:28.290Z,66.00
2019-04-10T14:36:11.688Z,67.40
2019-04-10T14:38:55.110Z,66.70
2019-04-10T14:41:38.487Z,66.50
2019-04-10T14:44:20.802Z,66.70
2019-04-10T14:47:04.342Z,67.30
2019-04-10T14:49:46.848Z,67.20
2019-04-10T14:52:29.502Z,68.00
2019-04-10T14:55:12.468Z,67.90
2019-04-10T14:57:54.954Z,68.50
2019-04-10T15:00:41.134Z,70.00
2019-04-10T15:03:24.391Z,69.60
2019-04-10T15:05:57.033Z,69.40
2019-04-10T15:14:48.000Z,69.30
2019-04-10T15:17:30.876Z,69.20
2019-04-10T15:20:13.488Z,70.10
2019-04-10T15:22:55.959Z,68.60
2019-04-10T15:25:39.442Z,69.70
2019-04-10T15:28:21.267Z,69.80
2019-04-10T15:31:03.711Z,69.20
2019-04-10T15:33:46.601Z,69.30
2019-04-10T15:36:29.347Z,66.80
2019-04-10T15:39:12.723Z,67.40
2019-04-10T15:44:40.709Z,66.10
2019-04-10T15:47:23.515Z,66.90
2019-04-10T15:50:07.029Z,67.20
2019-04-10T15:52:51.456Z,66.40
2019-04-10T15:55:33.319Z,67.40
2019-04-10T15:58:15.922Z,66.60
2019-04-10T16:00:59.388Z,66.40
2019-04-10T16:06:31.792Z,69.20
2019-04-10T16:09:14.893Z,70.70
2019-04-10T16:18:33.055Z,73.30
2019-04-10T16:21:15.898Z,73.00
2019-04-10T16:23:51.778Z,73.90
2019-04-10T16:29:42.825Z,74.30
2019-04-10T16:32:26.645Z,74.90
2019-04-10T16:35:09.334Z,74.90
2019-04-10T16:37:51.848Z,74.70
2019-04-10T16:40:34.353Z,75.50
2019-04-10T16:49:57.223Z,77.30
2019-04-10T16:55:22.755Z,76.40
2019-04-10T16:58:09.523Z,76.50
2019-04-10T17:00:40.354Z,76.10
2019-04-10T17:06:28.061Z,76.00
2019-04-10T17:09:15.182Z,75.70
2019-04-10T17:11:47.543Z,75.00
2019-04-10T17:17:38.809Z,77.00
2019-04-10T17:20:22.415Z,76.40
2019-04-10T17:23:05.275Z,77.40
2019-04-10T17:25:48.733Z,77.20
2019-04-10T17:28:32.342Z,77.10
2019-04-10T17:31:14.500Z,77.30
2019-04-10T17:33:58.589Z,78.70
2019-04-10T17:36:41.313Z,78.30
2019-04-10T17:39:25.050Z,79.50
2019-04-10T17:42:08.101Z,80.40
2019-04-10T17:44:50.172Z,80.60
2019-04-10T17:47:33.412Z,80.80
2019-04-10T17:50:22.524Z,80.80
2019-04-10T17:53:25.407Z,81.10
2019-04-10T17:56:08.474Z,81.80
2019-04-10T17:58:51.972Z,81.00
2019-04-10T18:01:34.840Z,81.50
2019-04-10T18:04:17.904Z,82.10
2019-04-10T18:07:00.044Z,82.20
2019-04-10T18:09:43.061Z,82.10
2019-04-10T18:12:25.947Z,82.10
2019-04-10T18:15:08.207Z,82.20
2019-04-10T18:17:51.347Z,82.20
2019-04-10T18:23:13.413Z,81.80
2019-04-10T18:25:56.202Z,80.90
2019-04-10T18:28:38.802Z,81.50
2019-04-10T18:31:24.822Z,80.70
2019-04-10T18:34:31.592Z,80.50
2019-04-10T18:37:16.571Z,80.60
2019-04-10T18:39:59.006Z,80.20
2019-04-10T18:46:09.031Z,79.60
2019-04-10T18:52:00.599Z,79.80
2019-04-10T18:54:43.524Z,80.30
2019-04-10T18:57:26.152Z,80.50
2019-04-10T19:00:15.384Z,80.60
2019-04-10T19:06:36.768Z,80.30
2019-04-10T19:09:38.960Z,79.80
2019-04-10T19:12:48.727Z,80.00
2019-04-10T19:18:15.367Z,80.60
2019-04-10T19:20:46.924Z,80.80
2019-04-10T19:23:37.079Z,80.70
2019-04-10T19:26:23.149Z,79.80
2019-04-10T19:28:53.955Z,80.20
2019-04-10T19:34:47.615Z,80.30
2019-04-10T19:37:39.384Z,79.90
2019-04-10T19:40:23.536Z,78.70
2019-04-10T19:49:42.667Z,78.50
2019-04-10T19:52:24.592Z,79.00
2019-04-10T19:55:07.523Z,78.80
2019-04-10T19:57:53.336Z,78.40
2019-04-10T20:00:36.778Z,77.80
2019-04-10T20:03:19.554Z,77.60
2019-04-10T20:06:03.817Z,77.80
2019-04-10T20:08:46.039Z,78.10
2019-04-10T20:11:37.350Z,78.10
2019-04-10T20:14:14.206Z,78.10
2019-04-10T20:17:15.698Z,78.50
2019-04-10T20:23:46.363Z,78.60
2019-04-10T20:26:07.486Z,79.10
2019-04-10T20:29:09.152Z,79.60
2019-04-10T20:31:53.339Z,79.80
2019-04-10T20:34:36.005Z,80.80
2019-04-10T20:40:03.368Z,81.80
2019-04-10T20:42:46.582Z,83.20
2019-04-10T20:45:31.748Z,84.90
2019-04-10T20:48:14.112Z,85.10
2019-04-10T20:51:16.524Z,86.10
2019-04-10T20:54:18.939Z,86.00
2019-04-10T20:57:01.771Z,87.30
2019-04-10T21:02:28.522Z,87.70
2019-04-10T21:08:01.985Z,88.20
2019-04-10T21:10:45.016Z,87.90
2019-04-10T21:13:54.398Z,88.30
2019-04-10T21:16:36.227Z,89.80
2019-04-10T21:19:18.873Z,90.10
2019-04-10T21:22:01.658Z,90.40
2019-04-10T21:24:43.935Z,90.40
2019-04-10T21:27:26.591Z,90.70
2019-04-10T21:33:40.807Z,90.80
2019-04-10T21:39:54.588Z,90.50
2019-04-10T21:42:37.085Z,90.30
2019-04-10T21:45:20.148Z,90.50
2019-04-10T21:50:51.779Z,91.00
2019-04-10T21:53:35.955Z,91.30
2019-04-10T21:56:20.244Z,91.30
2019-04-10T21:58:51.379Z,91.30
2019-04-10T22:05:16.424Z,91.10
2019-04-10T22:10:57.448Z,91.30
2019-04-10T22:13:40.096Z,91.40
2019-04-10T22:16:22.072Z,91.30
2019-04-10T22:19:05.855Z,91.30
2019-04-10T22:21:48.177Z,90.90
2019-04-10T22:24:30.123Z,91.20
2019-04-10T22:27:12.383Z,91.10
2019-04-10T22:29:54.999Z,91.20
2019-04-10T22:32:38.777Z,91.20
2019-04-10T22:38:05.211Z,91.10
2019-04-10T22:40:48.286Z,90.70
2019-04-10T22:43:30.351Z,90.70
2019-04-10T22:48:57.711Z,90.50
2019-04-10T22:51:40.479Z,91.10
2019-04-10T22:54:22.373Z,90.80
2019-04-10T23:03:54.947Z,89.50
2019-04-10T23:06:56.047Z,90.00
2019-04-10T23:09:38.804Z,90.10
2019-04-10T23:12:20.675Z,90.20
2019-04-10T23:15:03.119Z,90.00
2019-04-10T23:20:30.023Z,88.90
2019-04-10T23:25:52.961Z,88.30
2019-04-10T23:28:35.735Z,87.30
2019-04-10T23:31:21.592Z,88.10
2019-04-10T23:34:04.192Z,88.30
2019-04-10T23:36:46.578Z,88.90
2019-04-10T23:39:30.317Z,89.00
2019-04-10T23:42:12.850Z,88.80
2019-04-10T23:44:43.363Z,89.10
2019-04-10T23:53:30.801Z,88.40
2019-04-10T23:56:16.145Z,88.40
2019-04-10T23:58:48.065Z,87.30
